PWSweather.com
Personal Weather Stations
Station Observations
KWIPARKF
Flambeau River State Forest, Park Falls, WI 54552

Flambeau River State ForestPark Falls, WI 54552

Lat: 45.81943, Lon: -90.61676

Elevation: 1476

Station Type: Davis Vantage Pro2 Plus

Latest ConditionsUpdated 11:10:01 PM CDT Tuesday, Aug 20, 2019
Currently Today's Max Today's Min Today's Average
Temperature 65.9°F18.8°C 76.6°F24.8°C 51.8°F11.0°C 63.7°F17.6°C
Dew Point 64.5°F18.1°C 68.8°F20.4°C 50.8°F10.4°C 60.5°F15.8°C
Winds Calm Calm 4.6 mph -7.4 kmh - - 0.0 mph 0.0 kmh
Wind Gusts -- 13.8 mph22.2 kmh - -
Humidity 95% 100% 72% 90%
Pressure 29.97 in1014.9 mb 30.12 in1020.0 mb 29.89 in1012.2 mb -
Precipitation - 0.02 in0.5 mm - -
Hour Temp Dew Point Humidity Winds Wind Gusts Pressure Precip Precip Rate Daily Precip Total
11:10 PM 65.9°F18.8°C 64.5°F18.1°C 95% Calm Calm -- 29.97 in1014.9 mb - 0.00 in0.0 mm 0.02 in0.5 mm
11:00 PM 66.1°F18.9°C 64.9°F18.3°C 96% Calm Calm 1.2 mph1.9 kmh 29.96 in1014.6 mb - 0.00 in0.0 mm 0.02 in0.5 mm
10:50 PM 66.2°F19.0°C 65.0°F18.3°C 96% Calm Calm -- 29.96 in1014.6 mb - 0.00 in0.0 mm 0.02 in0.5 mm
10:40 PM 66.2°F19.0°C 64.8°F18.2°C 95% Calm Calm -- 29.96 in1014.6 mb - 0.00 in0.0 mm 0.02 in0.5 mm
10:30 PM 66.3°F19.1°C 64.8°F18.2°C 95% Calm Calm -- 29.96 in1014.6 mb - 0.00 in0.0 mm 0.02 in0.5 mm
10:20 PM 66.4°F19.1°C 64.6°F18.1°C 94% Calm Calm -- 29.95 in1014.2 mb - 0.00 in0.0 mm 0.02 in0.5 mm
10:10 PM 66.6°F19.2°C 64.8°F18.2°C 94% Calm Calm -- 29.94 in1013.9 mb - 0.00 in0.0 mm 0.02 in0.5 mm
10:00 PM 66.6°F19.2°C 64.5°F18.1°C 93% Calm Calm -- 29.95 in1014.2 mb - 0.00 in0.0 mm 0.02 in0.5 mm
09:50 PM 66.8°F19.3°C 64.1°F17.8°C 91% Calm Calm -- 29.94 in1013.9 mb - 0.00 in0.0 mm 0.02 in0.5 mm
09:40 PM 67.2°F19.6°C 64.5°F18.1°C 91% Calm Calm -- 29.94 in1013.9 mb - 0.00 in0.0 mm 0.02 in0.5 mm
09:30 PM 67.6°F19.8°C 64.9°F18.3°C 91% Calm Calm -- 29.94 in1013.9 mb - 0.00 in0.0 mm 0.02 in0.5 mm
09:20 PM 68.0°F20.0°C 65.0°F18.3°C 90% Calm Calm -- 29.94 in1013.9 mb - 0.00 in0.0 mm 0.02 in0.5 mm
09:10 PM 68.5°F20.3°C 65.4°F18.6°C 90% Calm Calm -- 29.94 in1013.9 mb - 0.00 in0.0 mm 0.02 in0.5 mm
09:00 PM 68.9°F20.5°C 65.9°F18.8°C 90% Calm Calm -- 29.93 in1013.5 mb - 0.00 in0.0 mm 0.02 in0.5 mm
08:50 PM 69.3°F20.7°C 66.3°F19.1°C 90% Calm Calm -- 29.94 in1013.9 mb - 0.00 in0.0 mm 0.02 in0.5 mm
08:40 PM 69.7°F20.9°C 66.3°F19.1°C 89% Calm Calm -- 29.94 in1013.9 mb - 0.00 in0.0 mm 0.02 in0.5 mm
08:30 PM 70.0°F21.1°C 66.6°F19.2°C 89% Calm Calm -- 29.93 in1013.5 mb - 0.00 in0.0 mm 0.02 in0.5 mm
08:20 PM 70.4°F21.3°C 66.7°F19.3°C 88% Calm Calm -- 29.93 in1013.5 mb - 0.00 in0.0 mm 0.02 in0.5 mm
08:10 PM 70.6°F21.4°C 66.5°F19.2°C 87% Calm Calm -- 29.93 in1013.5 mb - 0.00 in0.0 mm 0.02 in0.5 mm
08:00 PM 70.6°F21.4°C 66.9°F19.4°C 88% Calm Calm -- 29.93 in1013.5 mb - 0.00 in0.0 mm 0.02 in0.5 mm
07:50 PM 70.6°F21.4°C 67.2°F19.6°C 89% Calm Calm -- 29.92 in1013.2 mb - 0.00 in0.0 mm 0.02 in0.5 mm
07:40 PM 71.2°F21.8°C 67.8°F19.9°C 89% Calm Calm -- 29.93 in1013.5 mb - 0.00 in0.0 mm 0.02 in0.5 mm
07:30 PM 71.3°F21.8°C 67.9°F19.9°C 89% Calm Calm -- 29.92 in1013.2 mb - 0.00 in0.0 mm 0.02 in0.5 mm
07:20 PM 72.0°F22.2°C 68.3°F20.2°C 88% Calm Calm -- 29.92 in1013.2 mb - 0.00 in0.0 mm 0.02 in0.5 mm
07:10 PM 72.4°F22.4°C 67.7°F19.8°C 85% Calm Calm -- 29.93 in1013.5 mb - 0.00 in0.0 mm 0.02 in0.5 mm
07:00 PM 73.3°F22.9°C 67.8°F19.9°C 83% Calm Calm -- 29.93 in1013.5 mb - 0.00 in0.0 mm 0.02 in0.5 mm
06:50 PM 73.9°F23.3°C 68.0°F20.0°C 82% Calm Calm -- 29.93 in1013.5 mb - 0.00 in0.0 mm 0.02 in0.5 mm
06:40 PM 73.2°F22.9°C 68.8°F20.4°C 86% Calm Calm -- 29.93 in1013.5 mb - 0.00 in0.0 mm 0.02 in0.5 mm
06:30 PM 73.4°F23.0°C 67.9°F19.9°C 83% Calm Calm -- 29.93 in1013.5 mb - 0.00 in0.0 mm 0.02 in0.5 mm
06:20 PM 74.3°F23.5°C 67.7°F19.8°C 80% Calm Calm -- 29.93 in1013.5 mb - 0.00 in0.0 mm 0.02 in0.5 mm
06:10 PM 73.6°F23.1°C 68.1°F20.1°C 83% Calm Calm -- 29.93 in1013.5 mb - 0.00 in0.0 mm 0.02 in0.5 mm
06:00 PM 73.9°F23.3°C 67.0°F19.4°C 79% Calm Calm -- 29.93 in1013.5 mb - 0.00 in0.0 mm 0.02 in0.5 mm
05:50 PM 75.8°F24.3°C 68.1°F20.1°C 77% Calm Calm -- 29.93 in1013.5 mb - 0.00 in0.0 mm 0.02 in0.5 mm
05:40 PM 76.2°F24.6°C 66.9°F19.4°C 73% Calm Calm -- 29.93 in1013.5 mb - 0.00 in0.0 mm 0.02 in0.5 mm
05:30 PM 76.3°F24.6°C 66.7°F19.3°C 72% Calm Calm -- 29.93 in1013.5 mb - 0.00 in0.0 mm 0.02 in0.5 mm
05:20 PM 76.4°F24.7°C 66.7°F19.3°C 72% Calm Calm 1.2 mph1.9 kmh 29.93 in1013.5 mb - 0.00 in0.0 mm 0.02 in0.5 mm
05:10 PM 76.5°F24.7°C 67.2°F19.6°C 73% Calm Calm -- 29.93 in1013.5 mb - 0.00 in0.0 mm 0.02 in0.5 mm
05:00 PM 76.2°F24.6°C 66.6°F19.2°C 72% Calm Calm -- 29.92 in1013.2 mb - 0.00 in0.0 mm 0.02 in0.5 mm
04:50 PM 76.6°F24.8°C 66.9°F19.4°C 72% Calm Calm -- 29.92 in1013.2 mb - 0.00 in0.0 mm 0.02 in0.5 mm
04:40 PM 76.3°F24.6°C 67.0°F19.4°C 73% Calm Calm -- 29.92 in1013.2 mb - 0.00 in0.0 mm 0.02 in0.5 mm
04:30 PM 76.0°F24.4°C 67.5°F19.7°C 75% Calm Calm -- 29.92 in1013.2 mb - 0.00 in0.0 mm 0.02 in0.5 mm
04:20 PM 75.4°F24.1°C 66.5°F19.2°C 74% Calm Calm -- 29.92 in1013.2 mb - 0.00 in0.0 mm 0.02 in0.5 mm
04:10 PM 74.9°F23.8°C 65.3°F18.5°C 72% Calm Calm -- 29.92 in1013.2 mb - 0.00 in0.0 mm 0.02 in0.5 mm
04:00 PM 75.1°F23.9°C 65.8°F18.8°C 73% Calm Calm -- 29.92 in1013.2 mb - 0.00 in0.0 mm 0.02 in0.5 mm
03:50 PM 75.2°F24.0°C 65.9°F18.8°C 73% Calm Calm -- 29.92 in1013.2 mb - 0.01 in0.3 mm 0.02 in0.5 mm
03:40 PM 75.4°F24.1°C 66.5°F19.2°C 74% Calm Calm -- 29.92 in1013.2 mb - 0.01 in0.3 mm 0.02 in0.5 mm
03:30 PM 74.8°F23.8°C 66.0°F18.9°C 74% Calm Calm -- 29.92 in1013.2 mb - 0.01 in0.3 mm 0.02 in0.5 mm
03:20 PM 74.0°F23.3°C 64.8°F18.2°C 73% Calm Calm -- 29.92 in1013.2 mb - 0.01 in0.3 mm 0.02 in0.5 mm
03:10 PM 73.8°F23.2°C 65.7°F18.7°C 76% Calm Calm -- 29.92 in1013.2 mb - 0.01 in0.3 mm 0.02 in0.5 mm
03:00 PM 73.5°F23.1°C 65.1°F18.4°C 75% Calm Calm -- 29.91 in1012.9 mb - 0.01 in0.3 mm 0.02 in0.5 mm
02:50 PM 72.6°F22.6°C 66.1°F18.9°C 80% Calm Calm -- 29.92 in1013.2 mb - 0.00 in0.0 mm 0.01 in0.3 mm
02:40 PM 71.4°F21.9°C 64.9°F18.3°C 80% Calm Calm -- 29.91 in1012.9 mb - 0.00 in0.0 mm 0.01 in0.3 mm
02:30 PM 71.2°F21.8°C 65.1°F18.4°C 81% Calm Calm -- 29.92 in1013.2 mb - 0.00 in0.0 mm 0.01 in0.3 mm
02:20 PM 70.0°F21.1°C 64.6°F18.1°C 83% Calm Calm -- 29.92 in1013.2 mb - 0.00 in0.0 mm 0.01 in0.3 mm
02:10 PM 70.2°F21.2°C 65.1°F18.4°C 84% Calm Calm -- 29.91 in1012.9 mb - 0.00 in0.0 mm 0.01 in0.3 mm
02:00 PM 70.1°F21.2°C 64.4°F18.0°C 82% Calm Calm -- 29.91 in1012.9 mb - 0.00 in0.0 mm 0.01 in0.3 mm
01:50 PM 69.8°F21.0°C 63.7°F17.6°C 81% Calm Calm -- 29.91 in1012.9 mb - 0.00 in0.0 mm 0.01 in0.3 mm
01:40 PM 69.2°F20.7°C 64.8°F18.2°C 86% Calm Calm -- 29.92 in1013.2 mb - 0.00 in0.0 mm 0.01 in0.3 mm
01:30 PM 69.2°F20.7°C 64.8°F18.2°C 86% Calm Calm -- 29.92 in1013.2 mb - 0.00 in0.0 mm 0.01 in0.3 mm
01:20 PM 68.7°F20.4°C 64.3°F17.9°C 86% Calm Calm -- 29.92 in1013.2 mb - 0.00 in0.0 mm 0.01 in0.3 mm
01:10 PM 68.4°F20.2°C 65.0°F18.3°C 89% Calm Calm -- 29.92 in1013.2 mb - 0.00 in0.0 mm 0.01 in0.3 mm
01:00 PM 67.4°F19.7°C 65.0°F18.3°C 92% Calm Calm -- 29.92 in1013.2 mb - 0.00 in0.0 mm 0.01 in0.3 mm
12:50 PM 66.6°F19.2°C 64.2°F17.9°C 92% Calm Calm -- 29.90 in1012.5 mb - 0.00 in0.0 mm 0.01 in0.3 mm
12:40 PM 66.2°F19.0°C 64.1°F17.8°C 93% Calm Calm -- 29.90 in1012.5 mb - 0.00 in0.0 mm 0.01 in0.3 mm
12:30 PM 65.4°F18.6°C 63.7°F17.6°C 94% Calm Calm -- 29.90 in1012.5 mb - 0.00 in0.0 mm 0.01 in0.3 mm
12:20 PM 65.1°F18.4°C 63.6°F17.6°C 95% Calm Calm -- 29.89 in1012.2 mb - 0.00 in0.0 mm 0.01 in0.3 mm
12:10 PM 64.7°F18.2°C 63.2°F17.3°C 95% Calm Calm -- 29.91 in1012.9 mb - 0.00 in0.0 mm 0.01 in0.3 mm
12:00 PM 64.2°F17.9°C 62.7°F17.1°C 95% Calm Calm -- 29.92 in1013.2 mb - 0.00 in0.0 mm 0.01 in0.3 mm
11:50 AM 63.9°F17.7°C 62.4°F16.9°C 95% Calm Calm -- 29.92 in1013.2 mb - 0.00 in0.0 mm 0.01 in0.3 mm
11:40 AM 64.1°F17.8°C 62.3°F16.8°C 94% Calm Calm -- 29.92 in1013.2 mb - 0.00 in0.0 mm 0.01 in0.3 mm
11:30 AM 64.8°F18.2°C 62.7°F17.1°C 93% Calm Calm 1.2 mph1.9 kmh 29.95 in1014.2 mb - 0.01 in0.3 mm 0.01 in0.3 mm
11:20 AM 65.1°F18.4°C 62.7°F17.1°C 92% Calm Calm -- 30.04 in1017.3 mb - 0.01 in0.3 mm 0.01 in0.3 mm
11:00 AM 65.7°F18.7°C 63.0°F17.2°C 91% Calm Calm -- 30.05 in1017.6 mb - 0.01 in0.3 mm 0.01 in0.3 mm
10:50 AM 64.7°F18.2°C 62.3°F16.8°C 92% Calm Calm -- 30.07 in1018.3 mb - 0.01 in0.3 mm 0.01 in0.3 mm
10:40 AM 64.3°F17.9°C 62.3°F16.8°C 93% Calm Calm -- 30.09 in1019.0 mb - 0.01 in0.3 mm 0.01 in0.3 mm
10:30 AM 64.5°F18.1°C 61.5°F16.4°C 90% Calm Calm -- 30.10 in1019.3 mb - 0.01 in0.3 mm 0.01 in0.3 mm
10:20 AM 65.2°F18.4°C 61.6°F16.4°C 88% 4.6 mph NNW7.4 kmh NNW 13.8 mph22.2 kmh 30.12 in1020.0 mb - 0.00 in0.0 mm 0.00 in0.0 mm
10:10 AM 66.0°F18.9°C 61.7°F16.5°C 86% Calm Calm -- 30.10 in1019.3 mb - 0.00 in0.0 mm 0.00 in0.0 mm
10:00 AM 66.2°F19.0°C 61.6°F16.4°C 85% Calm Calm -- 30.06 in1017.9 mb - 0.00 in0.0 mm 0.00 in0.0 mm
09:50 AM 66.6°F19.2°C 61.6°F16.4°C 84% Calm Calm -- 30.04 in1017.3 mb - 0.00 in0.0 mm 0.00 in0.0 mm
09:40 AM 67.0°F19.4°C 63.0°F17.2°C 87% Calm Calm -- 30.01 in1016.3 mb - 0.00 in0.0 mm 0.00 in0.0 mm
09:30 AM 67.2°F19.6°C 62.9°F17.2°C 86% Calm Calm -- 29.98 in1015.2 mb - 0.00 in0.0 mm 0.00 in0.0 mm
09:20 AM 65.1°F18.4°C 63.6°F17.6°C 95% Calm Calm 1.2 mph1.9 kmh 29.98 in1015.2 mb - 0.00 in0.0 mm 0.00 in0.0 mm
09:10 AM 61.6°F16.4°C 61.6°F16.4°C 100% Calm Calm -- 29.98 in1015.2 mb - 0.00 in0.0 mm 0.00 in0.0 mm
09:00 AM 60.6°F15.9°C 60.6°F15.9°C 100% 2.3 mph SW3.7 kmh SW 8.1 mph13.0 kmh 29.98 in1015.2 mb - 0.00 in0.0 mm 0.00 in0.0 mm
08:50 AM 59.8°F15.4°C 59.8°F15.4°C 100% Calm Calm -- 29.98 in1015.2 mb - 0.00 in0.0 mm 0.00 in0.0 mm
08:40 AM 59.0°F15.0°C 59.0°F15.0°C 100% Calm Calm -- 29.98 in1015.2 mb - 0.00 in0.0 mm 0.00 in0.0 mm
08:30 AM 57.5°F14.2°C 57.6°F14.2°C 100% Calm Calm -- 29.98 in1015.2 mb - 0.00 in0.0 mm 0.00 in0.0 mm
08:20 AM 56.5°F13.6°C 56.5°F13.6°C 100% Calm Calm -- 29.97 in1014.9 mb - 0.00 in0.0 mm 0.00 in0.0 mm
08:10 AM 55.5°F13.1°C 55.5°F13.1°C 100% Calm Calm -- 29.97 in1014.9 mb - 0.00 in0.0 mm 0.00 in0.0 mm
08:00 AM 54.8°F12.7°C 54.8°F12.7°C 100% Calm Calm -- 29.96 in1014.6 mb - 0.00 in0.0 mm 0.00 in0.0 mm
07:50 AM 54.0°F12.2°C 54.0°F12.2°C 100% Calm Calm -- 29.96 in1014.6 mb - 0.00 in0.0 mm 0.00 in0.0 mm
07:40 AM 53.3°F11.8°C 53.3°F11.8°C 100% Calm Calm -- 29.96 in1014.6 mb - 0.00 in0.0 mm 0.00 in0.0 mm
07:30 AM 52.8°F11.6°C 52.8°F11.6°C 100% Calm Calm -- 29.97 in1014.9 mb - 0.00 in0.0 mm 0.00 in0.0 mm
07:20 AM 52.2°F11.2°C 52.2°F11.2°C 100% Calm Calm -- 29.96 in1014.6 mb - 0.00 in0.0 mm 0.00 in0.0 mm
07:10 AM 51.9°F11.1°C 51.4°F10.8°C 98% Calm Calm -- 29.96 in1014.6 mb - 0.00 in0.0 mm 0.00 in0.0 mm
07:00 AM 51.8°F11.0°C 51.0°F10.6°C 97% Calm Calm -- 29.96 in1014.6 mb - 0.00 in0.0 mm 0.00 in0.0 mm
06:50 AM 51.8°F11.0°C 51.0°F10.6°C 97% Calm Calm -- 29.95 in1014.2 mb - 0.00 in0.0 mm 0.00 in0.0 mm
06:40 AM 51.8°F11.0°C 51.0°F10.6°C 97% Calm Calm -- 29.95 in1014.2 mb - 0.00 in0.0 mm 0.00 in0.0 mm
06:30 AM 51.9°F11.1°C 51.1°F10.6°C 97% Calm Calm -- 29.95 in1014.2 mb - 0.00 in0.0 mm 0.00 in0.0 mm
06:20 AM 51.9°F11.1°C 51.1°F10.6°C 97% Calm Calm -- 29.92 in1013.2 mb - 0.00 in0.0 mm 0.00 in0.0 mm
06:10 AM 51.9°F11.1°C 51.1°F10.6°C 97% Calm Calm -- 29.92 in1013.2 mb - 0.00 in0.0 mm 0.00 in0.0 mm
06:00 AM 51.9°F11.1°C 50.8°F10.4°C 96% Calm Calm -- 29.93 in1013.5 mb - 0.00 in0.0 mm 0.00 in0.0 mm
05:50 AM 52.1°F11.2°C 51.3°F10.7°C 97% Calm Calm -- 29.93 in1013.5 mb - 0.00 in0.0 mm 0.00 in0.0 mm
05:40 AM 52.3°F11.3°C 51.2°F10.7°C 96% Calm Calm -- 29.94 in1013.9 mb - 0.00 in0.0 mm 0.00 in0.0 mm
05:30 AM 52.4°F11.3°C 51.3°F10.7°C 96% Calm Calm -- 29.95 in1014.2 mb - 0.00 in0.0 mm 0.00 in0.0 mm
05:20 AM 52.5°F11.4°C 51.4°F10.8°C 96% Calm Calm -- 29.97 in1014.9 mb - 0.00 in0.0 mm 0.00 in0.0 mm
05:10 AM 52.6°F11.4°C 51.5°F10.8°C 96% Calm Calm -- 29.98 in1015.2 mb - 0.00 in0.0 mm 0.00 in0.0 mm
05:00 AM 52.7°F11.5°C 51.5°F10.8°C 96% Calm Calm -- 29.98 in1015.2 mb - 0.00 in0.0 mm 0.00 in0.0 mm
04:50 AM 52.8°F11.6°C 51.7°F10.9°C 96% Calm Calm -- 29.99 in1015.6 mb - 0.00 in0.0 mm 0.00 in0.0 mm
04:40 AM 53.0°F11.7°C 51.9°F11.1°C 96% Calm Calm -- 29.99 in1015.6 mb - 0.00 in0.0 mm 0.00 in0.0 mm
04:30 AM 53.1°F11.7°C 52.0°F11.1°C 96% Calm Calm -- 30.00 in1015.9 mb - 0.00 in0.0 mm 0.00 in0.0 mm
04:20 AM 53.2°F11.8°C 52.1°F11.2°C 96% Calm Calm -- 30.00 in1015.9 mb - 0.00 in0.0 mm 0.00 in0.0 mm
04:10 AM 53.3°F11.8°C 52.2°F11.2°C 96% Calm Calm -- 30.01 in1016.3 mb - 0.00 in0.0 mm 0.00 in0.0 mm
04:00 AM 53.5°F11.9°C 52.4°F11.3°C 96% Calm Calm -- 30.01 in1016.3 mb - 0.00 in0.0 mm 0.00 in0.0 mm
03:50 AM 53.6°F12.0°C 52.5°F11.4°C 96% Calm Calm -- 30.02 in1016.6 mb - 0.00 in0.0 mm 0.00 in0.0 mm
03:40 AM 53.7°F12.1°C 52.6°F11.4°C 96% Calm Calm -- 30.02 in1016.6 mb - 0.00 in0.0 mm 0.00 in0.0 mm
03:30 AM 53.8°F12.1°C 52.7°F11.5°C 96% Calm Calm -- 30.02 in1016.6 mb - 0.00 in0.0 mm 0.00 in0.0 mm
03:20 AM 53.9°F12.2°C 52.8°F11.6°C 96% Calm Calm -- 30.02 in1016.6 mb - 0.00 in0.0 mm 0.00 in0.0 mm
03:10 AM 53.9°F12.2°C 52.5°F11.4°C 95% Calm Calm -- 30.02 in1016.6 mb - 0.00 in0.0 mm 0.00 in0.0 mm
03:00 AM 54.0°F12.2°C 52.6°F11.4°C 95% Calm Calm -- 30.02 in1016.6 mb - 0.00 in0.0 mm 0.00 in0.0 mm
02:50 AM 54.1°F12.3°C 52.7°F11.5°C 95% Calm Calm -- 30.02 in1016.6 mb - 0.00 in0.0 mm 0.00 in0.0 mm
02:40 AM 54.2°F12.3°C 52.8°F11.6°C 95% Calm Calm -- 30.02 in1016.6 mb - 0.00 in0.0 mm 0.00 in0.0 mm
02:30 AM 54.4°F12.4°C 53.0°F11.7°C 95% Calm Calm -- 30.03 in1016.9 mb - 0.00 in0.0 mm 0.00 in0.0 mm
02:20 AM 54.5°F12.5°C 52.8°F11.6°C 94% Calm Calm -- 30.03 in1016.9 mb - 0.00 in0.0 mm 0.00 in0.0 mm
02:10 AM 54.7°F12.6°C 53.0°F11.7°C 94% Calm Calm -- 30.03 in1016.9 mb - 0.00 in0.0 mm 0.00 in0.0 mm
02:00 AM 54.9°F12.7°C 53.2°F11.8°C 94% Calm Calm -- 30.03 in1016.9 mb - 0.00 in0.0 mm 0.00 in0.0 mm
01:50 AM 55.1°F12.8°C 53.4°F11.9°C 94% Calm Calm -- 30.03 in1016.9 mb - 0.00 in0.0 mm 0.00 in0.0 mm
01:40 AM 55.3°F12.9°C 53.3°F11.8°C 93% Calm Calm -- 30.03 in1016.9 mb - 0.00 in0.0 mm 0.00 in0.0 mm
01:30 AM 55.6°F13.1°C 53.6°F12.0°C 93% Calm Calm -- 30.03 in1016.9 mb - 0.00 in0.0 mm 0.00 in0.0 mm
01:20 AM 55.8°F13.2°C 53.8°F12.1°C 93% Calm Calm -- 30.03 in1016.9 mb - 0.00 in0.0 mm 0.00 in0.0 mm
01:10 AM 56.1°F13.4°C 54.1°F12.3°C 93% Calm Calm -- 30.03 in1016.9 mb - 0.00 in0.0 mm 0.00 in0.0 mm
01:00 AM 56.4°F13.6°C 54.4°F12.4°C 93% Calm Calm -- 30.03 in1016.9 mb - 0.00 in0.0 mm 0.00 in0.0 mm
12:50 AM 56.6°F13.7°C 54.3°F12.4°C 92% Calm Calm -- 30.03 in1016.9 mb - 0.00 in0.0 mm 0.00 in0.0 mm
12:40 AM 56.9°F13.8°C 54.6°F12.6°C 92% Calm Calm -- 30.03 in1016.9 mb - 0.00 in0.0 mm 0.00 in0.0 mm
12:30 AM 57.1°F13.9°C 54.8°F12.7°C 92% Calm Calm -- 30.03 in1016.9 mb - 0.00 in0.0 mm 0.00 in0.0 mm
12:20 AM 57.5°F14.2°C 55.2°F12.9°C 92% Calm Calm -- 30.03 in1016.9 mb - 0.00 in0.0 mm 0.00 in0.0 mm
12:10 AM 57.8°F14.3°C 55.5°F13.1°C 92% Calm Calm -- 30.03 in1016.9 mb - 0.00 in0.0 mm 0.00 in0.0 mm
12:00 AM 58.0°F14.4°C 55.7°F13.2°C 92% Calm Calm -- 30.03 in1016.9 mb - 0.00 in0.0 mm 0.00 in0.0 mm